Great Hebei — VRFU6 — position and weather

sailwx.info

Track history (hours):
 
Tides and Currents Weather Stations Pressure Air Temp Water Temp Dewpoint Dewpoint Depression Visibility Wind Speed Wind Dir Waves Ship Positions

Great Hebei

Last reported at 2017-Aug-11 17:55 UTC. Time now 2017-Aug-18 18:14 UTC.
Position S 32°11' E 033°29'.

Length 295 m; draft 18.3 m.

Type: Cargo ship. MMSI: 477617100.

Date/timePositionNaut miles runAvg speedWind from/ knotsBaromVisibWave heightAir tempDewpointWater temp
2017-Aug-11 17:55S 32°11' E 033°29'4 9.5
2017-Aug-11 17:31S 32°13' E 033°25'5 9.4
2017-Aug-11 17:01S 32°16' E 033°20'32 8.6
2017-Aug-11 13:19S 32°31' E 032°47'3 7.8
2017-Aug-11 12:57S 32°32' E 032°44'6 7.6
2017-Aug-11 12:10S 32°36' E 032°39'2 7.3
2017-Aug-11 11:55S 32°37' E 032°37'3 7.6
2017-Aug-11 11:29S 32°39' E 032°34'4 7.9
2017-Aug-11 11:00S 32°41' E 032°30'4 7.8
2017-Aug-11 10:30S 32°43' E 032°26'4 7.5
2017-Aug-11 10:01S 32°45' E 032°22'4 7.3
2017-Aug-11 09:27S 32°47' E 032°18'4 7.5
2017-Aug-11 08:57S 32°49' E 032°14'4 7.6
2017-Aug-11 08:28S 32°51' E 032°11'4 7.6
2017-Aug-11 08:00S 32°53' E 032°07'4 7.5
2017-Aug-11 07:30S 32°56' E 032°04'4 7.8
2017-Aug-11 06:59S 32°59' E 032°00'4 7.8
2017-Aug-11 06:31S 33°01' E 031°58'4 7.5
2017-Aug-11 05:55S 33°05' E 031°54'4 8.8
2017-Aug-11 05:31S 33°08' E 031°51'5 9.0
2017-Aug-11 05:00S 33°11' E 031°48'5 9.3
2017-Aug-11 04:30S 33°14' E 031°43'5 9.4
2017-Aug-11 04:00S 33°16' E 031°38'510.1
2017-Aug-11 03:31S 33°18' E 031°33'510.5
2017-Aug-11 03:01S 33°20' E 031°27'510.6
2017-Aug-11 02:30S 33°21' E 031°21'510.6
2017-Aug-11 02:00S 33°23' E 031°15'510.7
2017-Aug-11 01:31S 33°24' E 031°09'510.7
2017-Aug-11 01:01S 33°25' E 031°02'610.4
2017-Aug-11 00:24S 33°27' E 030°55'410.4
2017-Aug-11 00:00S 33°29' E 030°51'510.6
2017-Aug-10 23:31S 33°30' E 030°45'510.4
2017-Aug-10 23:01S 33°32' E 030°39'510.1
2017-Aug-10 22:31S 33°34' E 030°33'5 9.4
2017-Aug-10 22:01S 33°36' E 030°28'10 9.0
2017-Aug-10 20:53S 33°38' E 030°16'4 9.3
2017-Aug-10 20:31S 33°38' E 030°12'5 9.5
2017-Aug-10 20:01S 33°40' E 030°06'  
Track history (hours):
 
Tides and Currents Weather Stations Pressure Air Temp Water Temp Dewpoint Dewpoint Depression Visibility Wind Speed Wind Dir Waves Ship Positions

Great Hebei

Last reported at 2017-Aug-11 17:55 UTC. Time now 2017-Aug-18 18:14 UTC.
Position S 32°11' E 033°29'.

Length 295 m; draft 18.3 m.

Type: Cargo ship. MMSI: 477617100.

Date/timePositionNaut miles runAvg speedWind from/ knotsBaromVisibWave heightAir tempDewpointWater temp
2017-Aug-11 17:55S 32°11' E 033°29'4 9.5
2017-Aug-11 17:31S 32°13' E 033°25'5 9.4
2017-Aug-11 17:01S 32°16' E 033°20'32 8.6
2017-Aug-11 13:19S 32°31' E 032°47'3 7.8
2017-Aug-11 12:57S 32°32' E 032°44'6 7.6
2017-Aug-11 12:10S 32°36' E 032°39'2 7.3
2017-Aug-11 11:55S 32°37' E 032°37'3 7.6
2017-Aug-11 11:29S 32°39' E 032°34'4 7.9
2017-Aug-11 11:00S 32°41' E 032°30'4 7.8
2017-Aug-11 10:30S 32°43' E 032°26'4 7.5
2017-Aug-11 10:01S 32°45' E 032°22'4 7.3
2017-Aug-11 09:27S 32°47' E 032°18'4 7.5
2017-Aug-11 08:57S 32°49' E 032°14'4 7.6
2017-Aug-11 08:28S 32°51' E 032°11'4 7.6
2017-Aug-11 08:00S 32°53' E 032°07'4 7.5
2017-Aug-11 07:30S 32°56' E 032°04'4 7.8
2017-Aug-11 06:59S 32°59' E 032°00'4 7.8
2017-Aug-11 06:31S 33°01' E 031°58'4 7.5
2017-Aug-11 05:55S 33°05' E 031°54'4 8.8
2017-Aug-11 05:31S 33°08' E 031°51'5 9.0
2017-Aug-11 05:00S 33°11' E 031°48'5 9.3
2017-Aug-11 04:30S 33°14' E 031°43'5 9.4
2017-Aug-11 04:00S 33°16' E 031°38'510.1
2017-Aug-11 03:31S 33°18' E 031°33'510.5
2017-Aug-11 03:01S 33°20' E 031°27'510.6
2017-Aug-11 02:30S 33°21' E 031°21'510.6
2017-Aug-11 02:00S 33°23' E 031°15'510.7
2017-Aug-11 01:31S 33°24' E 031°09'510.7
2017-Aug-11 01:01S 33°25' E 031°02'610.4
2017-Aug-11 00:24S 33°27' E 030°55'410.4
2017-Aug-11 00:00S 33°29' E 030°51'510.6
2017-Aug-10 23:31S 33°30' E 030°45'510.4
2017-Aug-10 23:01S 33°32' E 030°39'510.1
2017-Aug-10 22:31S 33°34' E 030°33'5 9.4
2017-Aug-10 22:01S 33°36' E 030°28'10 9.0
2017-Aug-10 20:53S 33°38' E 030°16'4 9.3
2017-Aug-10 20:31S 33°38' E 030°12'5 9.5
2017-Aug-10 20:01S 33°40' E 030°06'  

Dump ship's entire track history